createdAt,value
2022-10-31T00:03:29.270Z,11.59
2022-10-31T00:07:33.683Z,11.63
2022-10-31T00:11:36.749Z,11.66
2022-10-31T00:15:41.647Z,11.67
2022-10-31T00:19:44.658Z,11.66
2022-10-31T00:23:49.143Z,11.68
2022-10-31T00:27:52.209Z,11.68
2022-10-31T00:31:55.304Z,11.65
2022-10-31T00:35:58.808Z,11.61
2022-10-31T00:40:04.982Z,11.59
2022-10-31T00:44:08.612Z,11.55
2022-10-31T00:48:11.965Z,11.55
2022-10-31T00:52:15.167Z,11.55
2022-10-31T00:56:20.480Z,11.55
2022-10-31T01:00:24.569Z,11.58
2022-10-31T01:04:27.918Z,11.58
2022-10-31T01:08:31.992Z,11.57
2022-10-31T01:12:39.797Z,11.52
2022-10-31T01:16:43.070Z,11.49
2022-10-31T01:20:46.073Z,11.49
2022-10-31T01:24:49.058Z,11.48
2022-10-31T01:28:55.162Z,11.48
2022-10-31T01:32:59.623Z,11.51
2022-10-31T01:37:02.915Z,11.53
2022-10-31T01:41:06.824Z,11.54
2022-10-31T01:45:13.403Z,11.54
2022-10-31T01:49:19.864Z,11.55
2022-10-31T01:53:26.868Z,11.56
2022-10-31T01:57:31.442Z,11.55
2022-10-31T02:01:36.216Z,11.53
2022-10-31T02:05:40.453Z,11.53
2022-10-31T02:09:45.386Z,11.56
2022-10-31T02:13:49.342Z,11.58
2022-10-31T02:17:53.982Z,11.61
2022-10-31T02:22:04.929Z,11.62
2022-10-31T02:26:29.889Z,11.63
2022-10-31T02:30:43.180Z,11.62
2022-10-31T02:34:58.166Z,11.58
2022-10-31T02:39:12.654Z,11.58
2022-10-31T02:43:26.850Z,11.55
2022-10-31T02:47:34.308Z,11.54
2022-10-31T02:51:40.757Z,11.52
2022-10-31T02:56:03.558Z,11.48
2022-10-31T03:00:09.201Z,11.46
2022-10-31T03:04:33.143Z,11.47
2022-10-31T03:08:48.527Z,11.44
2022-10-31T03:13:00.925Z,11.44
2022-10-31T03:17:10.251Z,11.44
2022-10-31T03:21:16.916Z,11.47
2022-10-31T03:25:21.543Z,11.47
2022-10-31T03:29:30.119Z,11.50
2022-10-31T03:33:36.830Z,11.50
2022-10-31T03:37:42.565Z,11.51
2022-10-31T03:41:58.356Z,11.54
2022-10-31T03:46:02.478Z,11.53
2022-10-31T03:50:06.952Z,11.52
2022-10-31T03:54:15.947Z,11.50
2022-10-31T03:58:26.275Z,11.51
2022-10-31T04:02:34.411Z,11.53
2022-10-31T04:06:41.115Z,11.58
2022-10-31T04:10:49.370Z,11.60
2022-10-31T04:14:55.465Z,11.62
2022-10-31T04:18:59.910Z,11.60
2022-10-31T04:23:03.813Z,11.54
2022-10-31T04:27:08.687Z,11.47
2022-10-31T04:31:14.235Z,11.49
2022-10-31T04:35:18.998Z,11.52
2022-10-31T04:39:25.826Z,11.55
2022-10-31T04:44:01.665Z,11.55
2022-10-31T04:48:06.560Z,11.48
2022-10-31T04:52:11.843Z,11.46
2022-10-31T04:56:15.239Z,11.44
2022-10-31T05:00:23.367Z,11.38
2022-10-31T05:04:28.739Z,11.37
2022-10-31T05:08:32.149Z,11.37
2022-10-31T05:12:36.071Z,11.37
2022-10-31T05:16:39.050Z,11.43
2022-10-31T05:21:06.875Z,11.45
2022-10-31T05:25:19.023Z,11.44
2022-10-31T05:29:22.101Z,11.44
2022-10-31T05:33:25.346Z,11.46
2022-10-31T05:38:05.222Z,11.51
2022-10-31T05:42:08.521Z,11.51
2022-10-31T05:46:11.771Z,11.50
2022-10-31T05:50:34.217Z,11.49
2022-10-31T05:54:47.094Z,11.46
2022-10-31T05:58:50.266Z,11.46
2022-10-31T06:03:00.029Z,11.40
2022-10-31T06:07:18.113Z,11.38
2022-10-31T06:11:22.648Z,11.35
2022-10-31T06:15:40.986Z,11.35
2022-10-31T06:19:44.847Z,11.36
2022-10-31T06:23:53.096Z,11.35
2022-10-31T06:28:35.695Z,11.30
2022-10-31T06:32:53.787Z,11.31
2022-10-31T06:36:58.220Z,11.25
2022-10-31T06:41:05.176Z,11.23
2022-10-31T06:45:25.908Z,11.26
2022-10-31T06:49:57.931Z,11.22
2022-10-31T06:54:02.449Z,11.23
2022-10-31T06:58:05.928Z,11.21
2022-10-31T07:02:12.939Z,11.25
2022-10-31T07:06:18.867Z,11.26
2022-10-31T07:10:23.022Z,11.28
2022-10-31T07:14:31.888Z,11.27
2022-10-31T07:18:37.384Z,11.27
2022-10-31T07:22:40.409Z,11.22
2022-10-31T07:26:47.000Z,11.21
2022-10-31T07:30:52.276Z,11.30
2022-10-31T07:34:58.346Z,11.33
2022-10-31T07:39:09.913Z,11.34
2022-10-31T07:43:14.598Z,11.40
2022-10-31T07:47:41.238Z,11.43
2022-10-31T07:52:04.273Z,11.45
2022-10-31T07:56:25.668Z,11.45
2022-10-31T08:00:30.633Z,11.44
2022-10-31T08:04:34.356Z,11.42
2022-10-31T08:08:57.928Z,11.45
2022-10-31T08:13:02.528Z,11.50
2022-10-31T08:17:06.786Z,11.50
2022-10-31T08:21:24.526Z,11.48
2022-10-31T08:25:37.151Z,11.51
2022-10-31T08:29:42.461Z,11.53
2022-10-31T08:33:45.918Z,11.56
2022-10-31T08:37:56.391Z,11.55
2022-10-31T08:42:03.800Z,11.57
2022-10-31T08:46:09.354Z,11.56
2022-10-31T08:50:14.816Z,11.61
2022-10-31T08:54:23.049Z,11.62
2022-10-31T08:58:27.740Z,11.64
2022-10-31T09:02:35.871Z,11.64
2022-10-31T09:06:46.408Z,11.65
2022-10-31T09:10:59.963Z,11.65
2022-10-31T09:15:45.614Z,11.65
2022-10-31T09:19:58.115Z,11.61
2022-10-31T09:24:07.982Z,11.65
2022-10-31T09:28:13.994Z,11.67
2022-10-31T09:32:18.575Z,11.70
2022-10-31T09:36:22.857Z,11.74
2022-10-31T09:40:32.182Z,11.77
2022-10-31T09:44:48.928Z,11.83
2022-10-31T09:49:26.759Z,11.87
2022-10-31T09:53:36.315Z,11.89
2022-10-31T09:57:41.137Z,11.88
2022-10-31T10:01:49.800Z,11.86
2022-10-31T10:06:04.007Z,11.87
2022-10-31T10:10:33.627Z,11.86
2022-10-31T10:15:15.741Z,11.86
2022-10-31T10:19:32.228Z,11.85
2022-10-31T10:23:47.308Z,11.85
2022-10-31T10:28:03.462Z,11.80
2022-10-31T10:32:13.344Z,11.81
2022-10-31T10:36:20.350Z,11.82
2022-10-31T10:40:27.144Z,11.81
2022-10-31T10:44:47.462Z,11.79
2022-10-31T10:48:57.831Z,11.85
2022-10-31T10:53:10.015Z,11.90
2022-10-31T10:57:33.182Z,11.96
2022-10-31T11:01:36.320Z,11.93
2022-10-31T11:05:43.641Z,11.96
2022-10-31T11:09:47.515Z,12.00
2022-10-31T11:13:57.461Z,12.02
2022-10-31T11:18:00.682Z,12.02
2022-10-31T11:22:09.744Z,12.07
2022-10-31T11:26:21.929Z,12.10
2022-10-31T11:30:26.356Z,12.13
2022-10-31T11:34:34.247Z,12.08
2022-10-31T11:38:42.879Z,11.99
2022-10-31T11:42:47.175Z,11.99
2022-10-31T11:46:54.493Z,11.98
2022-10-31T11:50:59.685Z,12.00
2022-10-31T11:55:15.658Z,12.02
2022-10-31T11:59:24.402Z,12.02
2022-10-31T12:03:51.057Z,12.03
2022-10-31T12:07:54.374Z,12.02
2022-10-31T12:12:45.581Z,11.98
2022-10-31T12:16:55.701Z,11.99
2022-10-31T12:21:11.726Z,12.02
2022-10-31T12:25:30.412Z,12.04
2022-10-31T12:29:49.726Z,12.09
2022-10-31T12:34:02.590Z,12.11
2022-10-31T12:38:23.956Z,12.10
2022-10-31T12:42:41.636Z,12.10
2022-10-31T12:47:01.576Z,12.04
2022-10-31T12:51:13.621Z,12.01
2022-10-31T12:55:32.512Z,11.98
2022-10-31T12:59:39.012Z,11.99
2022-10-31T13:03:49.231Z,12.00
2022-10-31T13:07:56.537Z,12.01
2022-10-31T13:12:06.682Z,12.04
2022-10-31T13:16:16.153Z,12.04
2022-10-31T13:20:25.580Z,12.07
2022-10-31T13:24:35.659Z,12.13
2022-10-31T13:28:45.676Z,12.15
2022-10-31T13:32:52.882Z,12.20
2022-10-31T13:37:06.468Z,12.20
2022-10-31T13:41:23.614Z,12.22
2022-10-31T13:45:29.372Z,12.21
2022-10-31T13:49:40.884Z,12.18
2022-10-31T13:53:47.105Z,12.14
2022-10-31T13:57:50.593Z,12.09
2022-10-31T14:02:01.220Z,12.01
2022-10-31T14:06:05.783Z,11.99
2022-10-31T14:10:23.599Z,11.93
2022-10-31T14:14:34.797Z,11.91
2022-10-31T14:18:41.564Z,11.90
2022-10-31T14:22:44.796Z,11.90
2022-10-31T14:26:55.215Z,11.90
2022-10-31T14:31:00.542Z,11.89
2022-10-31T14:35:05.869Z,11.92
2022-10-31T14:39:17.071Z,12.01
2022-10-31T14:43:50.116Z,12.10
2022-10-31T14:48:08.128Z,12.10
2022-10-31T14:52:15.536Z,12.08
2022-10-31T14:56:24.125Z,12.06
2022-10-31T15:00:27.249Z,12.07
2022-10-31T15:04:33.545Z,12.04
2022-10-31T15:08:42.587Z,12.04
2022-10-31T15:12:46.067Z,12.00
2022-10-31T15:16:49.171Z,11.97
2022-10-31T15:20:53.495Z,11.89
2022-10-31T15:24:58.250Z,11.84
2022-10-31T15:29:03.319Z,11.84
2022-10-31T15:33:21.850Z,11.83
2022-10-31T15:37:27.181Z,11.83
2022-10-31T15:41:35.301Z,11.85
2022-10-31T15:45:38.347Z,11.86
2022-10-31T15:49:44.242Z,11.84
2022-10-31T15:53:50.793Z,11.79
2022-10-31T15:57:58.941Z,11.77
2022-10-31T16:02:04.183Z,11.75
2022-10-31T16:06:07.649Z,11.70
2022-10-31T16:10:26.217Z,11.70
2022-10-31T16:14:37.855Z,11.67
2022-10-31T16:18:43.256Z,11.69
2022-10-31T16:22:51.785Z,11.70
2022-10-31T16:27:00.358Z,11.77
2022-10-31T16:31:15.707Z,11.78
2022-10-31T16:35:25.851Z,11.82
2022-10-31T16:39:29.076Z,11.81
2022-10-31T16:43:32.131Z,11.83
2022-10-31T16:47:36.697Z,11.81
2022-10-31T16:51:39.864Z,11.78
2022-10-31T16:55:47.283Z,11.66
2022-10-31T16:59:54.903Z,11.63
2022-10-31T17:03:59.360Z,11.64
2022-10-31T17:08:02.726Z,11.67
2022-10-31T17:12:21.368Z,11.70
2022-10-31T17:16:41.938Z,11.74
2022-10-31T17:21:23.083Z,11.75
2022-10-31T17:25:45.125Z,11.67
2022-10-31T17:29:57.438Z,11.60
2022-10-31T17:34:15.178Z,11.53
2022-10-31T17:38:36.666Z,11.50
2022-10-31T17:42:52.094Z,11.49
2022-10-31T17:46:55.122Z,11.47
2022-10-31T17:51:01.514Z,11.47
2022-10-31T17:55:06.762Z,11.47
2022-10-31T17:59:10.120Z,11.51
2022-10-31T18:03:13.158Z,11.55
2022-10-31T18:07:19.305Z,11.55
2022-10-31T18:11:23.720Z,11.55
2022-10-31T18:15:26.876Z,11.50
2022-10-31T18:19:29.906Z,11.49
2022-10-31T18:23:32.985Z,11.48
2022-10-31T18:27:37.551Z,11.47
2022-10-31T18:31:40.560Z,11.46
2022-10-31T18:35:43.663Z,11.44
2022-10-31T18:39:46.757Z,11.43
2022-10-31T18:43:52.136Z,11.38
2022-10-31T18:47:55.387Z,11.34
2022-10-31T18:51:58.420Z,11.30
2022-10-31T18:56:02.387Z,11.30
2022-10-31T19:00:08.518Z,11.32
2022-10-31T19:04:12.067Z,11.32
2022-10-31T19:08:15.541Z,11.37
2022-10-31T19:12:18.657Z,11.37
2022-10-31T19:16:23.471Z,11.31
2022-10-31T19:20:26.737Z,11.26
2022-10-31T19:24:30.830Z,11.22
2022-10-31T19:28:35.581Z,11.22
2022-10-31T19:32:40.036Z,11.19
2022-10-31T19:36:43.458Z,11.20
2022-10-31T19:40:46.549Z,11.19
2022-10-31T19:44:49.583Z,11.19
2022-10-31T19:48:54.233Z,11.16
2022-10-31T19:52:57.296Z,11.13
2022-10-31T19:57:00.378Z,11.14
2022-10-31T20:01:08.481Z,11.11
2022-10-31T20:05:13.190Z,11.09
2022-10-31T20:09:16.500Z,11.05
2022-10-31T20:13:19.502Z,11.03
2022-10-31T20:17:22.588Z,10.99
2022-10-31T20:21:29.189Z,11.00
2022-10-31T20:25:33.335Z,11.03
2022-10-31T20:29:36.520Z,11.04
2022-10-31T20:33:40.061Z,11.02
2022-10-31T20:37:44.820Z,10.96
2022-10-31T20:41:48.676Z,10.96
2022-10-31T20:45:52.044Z,10.95
2022-10-31T20:49:55.168Z,10.92
2022-10-31T20:54:00.760Z,10.91
2022-10-31T20:58:03.815Z,10.89
2022-10-31T21:02:07.184Z,10.87
2022-10-31T21:06:11.496Z,10.84
2022-10-31T21:10:16.116Z,10.78
2022-10-31T21:14:19.271Z,10.74
2022-10-31T21:18:22.968Z,10.72
2022-10-31T21:22:26.157Z,10.68
2022-10-31T21:26:34.493Z,10.65
2022-10-31T21:30:41.411Z,10.67
2022-10-31T21:34:44.519Z,10.68
2022-10-31T21:38:51.748Z,10.65
2022-10-31T21:42:56.734Z,10.60
2022-10-31T21:46:59.753Z,10.60
2022-10-31T21:51:06.494Z,10.53
2022-10-31T21:55:11.254Z,10.53
2022-10-31T21:59:15.663Z,10.54
2022-10-31T22:03:18.746Z,10.54
2022-10-31T22:07:21.766Z,10.52
2022-10-31T22:11:25.016Z,10.53
2022-10-31T22:15:29.445Z,10.54
2022-10-31T22:19:32.564Z,10.56
2022-10-31T22:23:36.455Z,10.56
2022-10-31T22:27:39.410Z,10.55
2022-10-31T22:31:45.842Z,10.58
2022-10-31T22:35:48.984Z,10.60
2022-10-31T22:39:52.174Z,10.63
2022-10-31T22:43:56.097Z,10.62
2022-10-31T22:48:00.579Z,10.64
2022-10-31T22:52:05.535Z,10.65
2022-10-31T22:56:10.733Z,10.63
2022-10-31T23:00:15.604Z,10.66
2022-10-31T23:04:20.611Z,10.63
2022-10-31T23:08:24.133Z,10.64
2022-10-31T23:12:44.721Z,10.67
2022-10-31T23:16:49.555Z,10.69
2022-10-31T23:20:55.405Z,10.67
2022-10-31T23:24:58.538Z,10.64
2022-10-31T23:29:00.586Z,10.63
2022-10-31T23:33:04.494Z,10.59
2022-10-31T23:37:09.984Z,10.61
2022-10-31T23:41:13.172Z,10.62
2022-10-31T23:45:16.740Z,10.61
2022-10-31T23:49:19.849Z,10.60
2022-10-31T23:53:24.540Z,10.58
2022-10-31T23:57:27.624Z,10.60
